createdAt,value
2022-11-08T00:01:56.328Z,2.95
2022-11-08T00:07:15.637Z,3.97
2022-11-08T00:12:34.873Z,3.28
2022-11-08T00:17:36.037Z,2.92
2022-11-08T00:22:37.024Z,7.25
2022-11-08T00:27:37.836Z,13.35
2022-11-08T00:32:38.665Z,12.88
2022-11-08T00:37:43.092Z,4.18
2022-11-08T00:42:43.807Z,3.58
2022-11-08T00:47:49.537Z,3.42
2022-11-08T00:52:50.306Z,3.83
2022-11-08T00:57:59.763Z,3.60
2022-11-08T01:08:22.509Z,4.90
2022-11-08T01:13:23.216Z,4.10
2022-11-08T01:18:26.485Z,4.95
2022-11-08T01:28:56.255Z,4.18
2022-11-08T01:33:58.431Z,5.12
2022-11-08T01:39:02.789Z,4.80
2022-11-08T01:44:15.291Z,4.10
2022-11-08T01:49:46.808Z,4.72
2022-11-08T02:01:37.320Z,4.47
2022-11-08T02:06:46.049Z,2.90
2022-11-08T02:11:51.131Z,3.80
2022-11-08T02:16:58.297Z,6.23
2022-11-08T02:22:06.226Z,6.15
2022-11-08T02:27:07.439Z,5.55
2022-11-08T02:32:10.321Z,4.12
2022-11-08T02:37:17.877Z,5.30
2022-11-08T02:42:21.837Z,5.57
2022-11-08T02:47:23.360Z,4.25
2022-11-08T02:52:26.788Z,4.47
2022-11-08T02:57:27.515Z,4.30
2022-11-08T03:02:28.430Z,4.07
2022-11-08T03:07:29.313Z,4.25
2022-11-08T03:12:36.220Z,4.37
2022-11-08T03:17:37.076Z,4.90
2022-11-08T03:22:47.105Z,4.87
2022-11-08T03:27:48.378Z,4.03
2022-11-08T03:32:53.212Z,4.30
2022-11-08T03:37:57.794Z,5.10
2022-11-08T03:43:10.854Z,5.12
2022-11-08T03:48:11.640Z,4.75
2022-11-08T03:53:15.772Z,5.57
2022-11-08T03:58:23.165Z,3.65
2022-11-08T04:03:24.521Z,3.10
2022-11-08T04:08:25.390Z,3.28
2022-11-08T04:13:44.429Z,3.87
2022-11-08T04:19:03.911Z,4.62
2022-11-08T04:24:05.767Z,5.55
2022-11-08T04:29:13.049Z,9.82
2022-11-08T04:34:13.784Z,6.75
2022-11-08T04:39:17.577Z,6.28
2022-11-08T04:44:18.497Z,7.72
2022-11-08T04:49:22.338Z,7.18
2022-11-08T04:54:23.575Z,7.40
2022-11-08T04:59:24.323Z,7.05
2022-11-08T05:04:25.023Z,6.18
2022-11-08T05:09:34.518Z,8.43
2022-11-08T05:14:36.349Z,9.88
2022-11-08T05:19:56.297Z,8.82
2022-11-08T05:24:57.127Z,8.48
2022-11-08T05:30:00.585Z,7.75
2022-11-08T05:35:04.900Z,8.32
2022-11-08T05:40:10.966Z,9.45
2022-11-08T05:45:11.816Z,9.95
2022-11-08T05:50:19.126Z,12.77
2022-11-08T05:55:30.259Z,12.82
2022-11-08T06:00:34.230Z,10.32
2022-11-08T06:05:37.818Z,10.70
2022-11-08T06:10:38.625Z,10.43
2022-11-08T06:15:42.311Z,10.45
2022-11-08T06:20:43.041Z,10.52
2022-11-08T06:25:47.719Z,11.73
2022-11-08T06:30:48.850Z,10.35
2022-11-08T06:35:49.754Z,12.68
2022-11-08T06:40:50.832Z,12.25
2022-11-08T06:45:52.166Z,10.93
2022-11-08T06:50:58.923Z,11.05
2022-11-08T06:56:06.449Z,10.80
2022-11-08T07:01:09.766Z,11.45
2022-11-08T07:06:16.371Z,10.68
2022-11-08T07:11:21.485Z,11.85
2022-11-08T07:16:27.691Z,11.00
2022-11-08T07:21:28.690Z,9.90
2022-11-08T07:26:29.945Z,9.10
2022-11-08T07:31:30.712Z,8.70
2022-11-08T07:36:34.979Z,10.85
2022-11-08T07:41:36.178Z,8.13
2022-11-08T07:46:37.509Z,6.68
2022-11-08T07:51:38.286Z,7.28
2022-11-08T07:56:42.094Z,5.18
2022-11-08T08:01:42.909Z,4.12
2022-11-08T08:06:51.595Z,3.15
2022-11-08T08:11:53.671Z,3.30
2022-11-08T08:16:55.212Z,3.67
2022-11-08T08:21:59.933Z,2.90
2022-11-08T08:27:06.249Z,3.33
2022-11-08T08:32:14.183Z,2.67
2022-11-08T08:37:16.526Z,3.40
2022-11-08T08:42:21.010Z,2.90
2022-11-08T08:47:21.779Z,4.43
2022-11-08T08:52:24.911Z,3.72
2022-11-08T08:57:29.343Z,3.53
2022-11-08T09:02:34.660Z,3.15
2022-11-08T09:07:37.148Z,3.40
2022-11-08T09:12:38.069Z,5.70
2022-11-08T09:17:44.723Z,5.28
2022-11-08T09:22:55.701Z,6.37
2022-11-08T09:27:59.384Z,4.50
2022-11-08T09:33:02.904Z,4.53
2022-11-08T09:38:07.926Z,2.95
2022-11-08T09:44:15.001Z,3.85
2022-11-08T09:49:33.728Z,8.18
2022-11-08T09:54:42.020Z,4.30
2022-11-08T09:59:48.511Z,2.40
2022-11-08T10:04:57.685Z,2.42
2022-11-08T10:14:46.731Z,2.17
2022-11-08T10:20:20.127Z,2.35
2022-11-08T10:25:32.390Z,2.40
2022-11-08T10:30:43.249Z,3.05
2022-11-08T10:36:06.687Z,3.08
2022-11-08T10:41:33.188Z,2.58
2022-11-08T10:46:59.732Z,3.62
2022-11-08T10:53:05.178Z,2.53
2022-11-08T10:58:38.568Z,3.12
2022-11-08T11:03:42.244Z,2.97
2022-11-08T11:08:48.948Z,2.90
2022-11-08T11:14:21.893Z,2.92
2022-11-08T11:19:27.949Z,2.70
2022-11-08T11:24:32.312Z,2.40
2022-11-08T11:29:35.703Z,2.35
2022-11-08T11:35:09.161Z,2.97
2022-11-08T11:45:54.945Z,4.00
2022-11-08T11:50:57.280Z,4.20
2022-11-08T11:56:40.317Z,3.85
2022-11-08T12:09:21.135Z,3.75
2022-11-08T12:17:56.417Z,3.58
2022-11-08T12:23:25.731Z,3.42
2022-11-08T12:28:57.741Z,3.45
2022-11-08T12:37:50.700Z,3.85
2022-11-08T12:43:05.332Z,2.95
2022-11-08T12:51:23.674Z,2.90
2022-11-08T12:56:43.561Z,3.10
2022-11-08T13:01:48.480Z,3.70
2022-11-08T13:06:58.127Z,3.00
2022-11-08T13:22:02.053Z,2.75
2022-11-08T13:27:40.139Z,2.95
2022-11-08T13:33:03.459Z,2.42
2022-11-08T13:46:45.346Z,3.00
2022-11-08T13:52:40.481Z,2.37
2022-11-08T13:58:08.144Z,2.53
2022-11-08T14:03:51.708Z,2.53
2022-11-08T14:09:33.433Z,2.60
2022-11-08T14:15:16.614Z,2.90
2022-11-08T14:20:40.279Z,2.08
2022-11-08T14:25:45.789Z,2.45
2022-11-08T14:30:53.895Z,2.60
2022-11-08T14:36:01.319Z,2.60
2022-11-08T14:41:08.018Z,3.03
2022-11-08T14:46:14.880Z,3.20
2022-11-08T14:51:23.268Z,2.58
2022-11-08T14:56:35.553Z,2.75
2022-11-08T15:01:43.371Z,2.40
2022-11-08T15:06:49.224Z,2.92
2022-11-08T15:11:59.667Z,2.50
2022-11-08T15:17:04.069Z,2.70
2022-11-08T15:22:31.938Z,2.50
2022-11-08T15:27:36.609Z,2.83
2022-11-08T15:32:43.808Z,2.60
2022-11-08T15:37:58.431Z,2.33
2022-11-08T15:43:23.041Z,4.65
2022-11-08T15:48:36.287Z,3.28
2022-11-08T15:53:37.340Z,3.55
2022-11-08T15:58:41.383Z,2.00
2022-11-08T16:03:46.446Z,1.92
2022-11-08T16:09:03.779Z,1.80
2022-11-08T16:14:05.978Z,3.05
2022-11-08T16:19:25.872Z,3.43
2022-11-08T16:24:36.781Z,3.22
2022-11-08T16:29:37.560Z,3.45
2022-11-08T16:34:44.258Z,3.80
2022-11-08T16:39:48.186Z,4.60
2022-11-08T16:45:01.864Z,4.30
2022-11-08T16:50:03.498Z,4.35
2022-11-08T16:55:21.382Z,5.72
2022-11-08T17:00:25.088Z,7.12
2022-11-08T17:05:26.100Z,8.13
2022-11-08T17:10:29.547Z,8.60
2022-11-08T17:15:34.306Z,7.53
2022-11-08T17:20:35.491Z,5.55
2022-11-08T17:25:43.839Z,7.47
2022-11-08T17:30:47.590Z,6.82
2022-11-08T17:35:48.322Z,6.72
2022-11-08T17:40:49.362Z,4.55
2022-11-08T17:45:59.610Z,3.75
2022-11-08T17:51:00.951Z,3.15
2022-11-08T17:56:04.966Z,3.30
2022-11-08T18:01:13.882Z,3.55
2022-11-08T18:06:15.776Z,2.85
2022-11-08T18:11:17.182Z,2.90
2022-11-08T18:16:21.263Z,4.00
2022-11-08T18:21:22.205Z,3.55
2022-11-08T18:26:29.198Z,3.17
2022-11-08T18:31:32.015Z,3.45
2022-11-08T18:36:33.044Z,2.92
2022-11-08T18:41:34.095Z,5.20
2022-11-08T18:46:59.242Z,3.97
2022-11-08T18:52:01.890Z,3.80
2022-11-08T18:57:12.030Z,3.90
2022-11-08T19:02:14.060Z,3.78
2022-11-08T19:07:15.440Z,3.08
2022-11-08T19:12:22.724Z,3.47
2022-11-08T19:17:23.488Z,3.17
2022-11-08T19:22:27.927Z,3.05
2022-11-08T19:27:28.869Z,3.05
2022-11-08T19:32:34.218Z,2.60
2022-11-08T19:37:34.982Z,2.78
2022-11-08T19:42:36.176Z,2.90
2022-11-08T19:47:36.911Z,2.67
2022-11-08T19:52:37.918Z,3.20
2022-11-08T19:57:38.681Z,2.53
2022-11-08T20:02:43.995Z,2.92
2022-11-08T20:07:46.214Z,2.45
2022-11-08T20:12:49.067Z,2.67
2022-11-08T20:17:50.010Z,3.28
2022-11-08T20:22:50.819Z,2.50
2022-11-08T20:27:55.377Z,3.85
2022-11-08T20:32:56.614Z,2.62
2022-11-08T20:37:57.393Z,3.92
2022-11-08T20:43:02.400Z,9.43
2022-11-08T20:48:03.502Z,4.93
2022-11-08T20:53:10.784Z,2.78
2022-11-08T20:58:11.530Z,2.90
2022-11-08T21:03:17.771Z,2.20
2022-11-08T21:13:52.323Z,3.78
2022-11-08T21:18:53.564Z,2.83
2022-11-08T21:23:54.741Z,2.75
2022-11-08T21:28:55.680Z,2.05
2022-11-08T21:33:57.506Z,3.10
2022-11-08T21:38:58.498Z,3.40
2022-11-08T21:44:01.675Z,3.42
2022-11-08T21:49:18.700Z,3.47
2022-11-08T21:54:19.491Z,3.70
2022-11-08T21:59:20.302Z,2.67
2022-11-08T22:04:24.106Z,2.58
2022-11-08T22:09:24.952Z,2.92
2022-11-08T22:14:26.182Z,2.85
2022-11-08T22:19:27.406Z,2.30
2022-11-08T22:24:28.166Z,2.75
2022-11-08T22:29:29.099Z,3.10
2022-11-08T22:34:33.521Z,2.67
2022-11-08T22:39:34.268Z,3.08
2022-11-08T22:44:35.453Z,5.93
2022-11-08T22:49:38.746Z,5.55
2022-11-08T22:54:43.759Z,3.53
2022-11-08T22:59:44.476Z,4.22
2022-11-08T23:04:45.249Z,5.60
2022-11-08T23:09:45.960Z,4.30
2022-11-08T23:15:05.212Z,3.00
2022-11-08T23:20:24.712Z,4.60
2022-11-08T23:25:28.916Z,7.10
2022-11-08T23:30:48.241Z,2.75
2022-11-08T23:36:19.852Z,3.55
2022-11-08T23:41:40.521Z,3.03
2022-11-08T23:46:45.076Z,2.65
2022-11-08T23:51:46.734Z,3.58
2022-11-08T23:56:47.990Z,3.50
